Time;durP1;ratioP1;P1;durP2;ratioP2;P2;SDS_P1;SDS_P2;PMS_P1;PMS_P2;Temp;Humidity;BMP_temperature;BMP_pressure;BME280_temperature;BME280_humidity;BME280_pressure;Samples;Min_cycle;Max_cycle;Signal;HPM_P1;HPM_P2
2022/12/18 00:01:22;;;;;;;38.30;11.05;;;27.00;91.90;;;;;;5105769;28;20031;-52
2022/12/18 00:03:50;;;;;;;32.33;11.20;;;26.90;92.00;;;;;;5106305;28;20087;-54
2022/12/18 00:06:17;;;;;;;46.33;12.43;;;26.90;91.80;;;;;;5101347;28;20284;-55
2022/12/18 00:08:45;;;;;;;50.97;12.60;;;27.00;92.10;;;;;;5108458;28;20079;-56
2022/12/18 00:11:15;;;;;;;37.75;12.23;;;27.00;92.20;;;;;;5105547;28;20028;-55
2022/12/18 00:13:42;;;;;;;39.10;11.50;;;27.00;92.20;;;;;;5103464;28;20024;-55
2022/12/18 00:16:11;;;;;;;39.72;11.75;;;26.90;92.30;;;;;;5103141;28;20328;-55
2022/12/18 00:18:38;;;;;;;41.97;12.85;;;26.90;92.30;;;;;;5103724;28;20031;-54
2022/12/18 00:21:07;;;;;;;34.65;11.55;;;26.80;92.20;;;;;;5100245;28;20032;-56
2022/12/18 00:23:35;;;;;;;43.65;11.93;;;26.80;92.30;;;;;;5093488;28;20087;-55
2022/12/18 00:26:03;;;;;;;32.53;10.38;;;26.80;92.50;;;;;;5093757;28;20073;-55
2022/12/18 00:28:30;;;;;;;26.90;10.23;;;26.80;92.40;;;;;;5094603;28;20056;-56
2022/12/18 00:31:17;;;;;;;39.75;10.95;;;26.70;92.50;;;;;;5093332;28;20032;-58
2022/12/18 00:33:45;;;;;;;24.67;10.48;;;26.80;92.60;;;;;;5094870;28;20051;-58
2022/12/18 00:36:17;;;;;;;17.77;10.48;;;26.70;92.60;;;;;;5092886;28;20043;-56
2022/12/18 00:38:44;;;;;;;19.65;9.52;;;26.60;92.60;;;;;;5093891;28;20028;-56
2022/12/18 00:41:13;;;;;;;28.85;10.20;;;26.60;92.60;;;;;;5100035;28;20032;-56
2022/12/18 00:43:40;;;;;;;22.80;9.88;;;26.70;92.70;;;;;;5105550;28;20024;-58
2022/12/18 00:46:07;;;;;;;19.33;9.60;;;26.60;92.70;;;;;;5104116;28;20029;-54
2022/12/18 00:48:33;;;;;;;20.52;9.57;;;26.60;92.60;;;;;;5104728;28;20049;-57
2022/12/18 00:51:00;;;;;;;20.30;9.30;;;26.60;92.40;;;;;;5101914;28;20035;-57
2022/12/18 00:53:26;;;;;;;20.45;9.50;;;26.60;92.40;;;;;;5103772;28;20101;-55
2022/12/18 00:55:53;;;;;;;15.43;8.73;;;26.60;92.20;;;;;;5103398;28;20024;-56
2022/12/18 00:58:19;;;;;;;16.95;8.98;;;26.70;92.20;;;;;;5103276;28;20426;-57
2022/12/18 01:00:46;;;;;;;16.90;9.05;;;26.70;92.00;;;;;;5107457;28;20016;-57
2022/12/18 01:03:16;;;;;;;17.70;9.25;;;26.70;92.00;;;;;;5122722;28;20031;-55
2022/12/18 01:05:43;;;;;;;19.95;9.10;;;26.70;92.10;;;;;;5101165;28;20081;-56
2022/12/18 01:08:10;;;;;;;17.95;9.07;;;26.70;92.00;;;;;;5084083;28;20044;-52
2022/12/18 01:10:39;;;;;;;17.15;8.70;;;26.90;91.80;;;;;;5081965;28;20036;-57
2022/12/18 01:13:06;;;;;;;15.02;9.20;;;27.00;91.60;;;;;;5083194;28;20029;-58
2022/12/18 01:15:32;;;;;;;14.57;8.38;;;27.10;91.30;;;;;;5083345;28;20028;-52
2022/12/18 01:17:59;;;;;;;20.60;9.65;;;27.10;91.10;;;;;;5083713;28;20043;-54
2022/12/18 01:20:26;;;;;;;21.98;12.18;;;27.20;90.90;;;;;;5084284;28;20024;-55
2022/12/18 01:22:52;;;;;;;33.05;17.13;;;27.30;90.80;;;;;;5082700;28;20056;-55
2022/12/18 01:25:19;;;;;;;45.58;25.90;;;27.30;90.60;;;;;;5082328;28;20016;-54
2022/12/18 01:27:45;;;;;;;50.90;28.70;;;27.30;90.50;;;;;;5082519;28;20028;-54
2022/12/18 01:30:12;;;;;;;39.55;25.10;;;27.40;90.40;;;;;;5082341;28;20198;-55
2022/12/18 01:32:38;;;;;;;42.85;19.88;;;27.40;90.30;;;;;;5082380;28;20039;-53
2022/12/18 01:35:06;;;;;;;33.30;16.83;;;27.50;90.20;;;;;;5082262;28;20040;-56
2022/12/18 01:37:32;;;;;;;33.78;14.80;;;27.40;90.20;;;;;;5083674;28;20052;-54
2022/12/18 01:39:59;;;;;;;21.70;12.38;;;27.50;90.10;;;;;;5083911;28;20021;-56
2022/12/18 01:42:25;;;;;;;21.02;11.18;;;27.50;90.10;;;;;;5084090;28;20036;-56
2022/12/18 01:45:13;;;;;;;20.30;11.15;;;27.50;90.00;;;;;;5083919;28;20066;-55
2022/12/18 01:47:40;;;;;;;18.00;10.13;;;27.50;89.80;;;;;;5083781;28;20048;-53
2022/12/18 01:50:15;;;;;;;15.82;9.48;;;27.50;89.80;;;;;;5083902;28;20044;-54
2022/12/18 01:52:51;;;;;;;20.83;9.27;;;27.50;89.60;;;;;;5084287;28;20028;-56
2022/12/18 01:55:22;;;;;;;19.65;9.15;;;27.50;89.60;;;;;;5084091;28;20332;-57
2022/12/18 01:57:51;;;;;;;22.60;9.40;;;27.50;89.50;;;;;;5082744;28;20103;-57
2022/12/18 02:00:21;;;;;;;17.35;8.18;;;27.50;89.50;;;;;;5084344;28;20023;-55
2022/12/18 02:02:48;;;;;;;18.45;8.25;;;27.50;89.40;;;;;;5084492;28;20043;-56
2022/12/18 02:05:38;;;;;;;14.38;8.20;;;27.50;89.30;;;;;;5083649;28;20013;-55
2022/12/18 02:08:31;;;;;;;16.33;8.27;;;27.50;89.30;;;;;;5062746;28;20236;-57
2022/12/18 02:11:06;;;;;;;16.33;7.40;;;27.50;89.20;;;;;;5087961;28;20020;-57
2022/12/18 02:13:49;;;;;;;15.43;7.82;;;27.50;89.20;;;;;;5086605;28;20232;-54
2022/12/18 02:16:34;;;;;;;14.30;7.97;;;27.50;89.00;;;;;;5087538;28;20031;-54
2022/12/18 02:19:08;;;;;;;13.10;7.50;;;27.50;88.90;;;;;;5087556;28;20301;-54
2022/12/18 02:21:49;;;;;;;15.02;7.78;;;27.50;88.70;;;;;;5087599;28;20012;-54
2022/12/18 02:24:44;;;;;;;15.70;7.53;;;27.50;88.50;;;;;;5087172;28;20063;-58
2022/12/18 02:27:11;;;;;;;13.57;7.50;;;27.50;88.20;;;;;;5087239;28;20028;-53
2022/12/18 02:29:53;;;;;;;12.32;7.72;;;27.50;88.10;;;;;;5087204;28;20020;-55
2022/12/18 02:32:27;;;;;;;12.20;7.05;;;27.50;87.90;;;;;;5087697;28;20049;-55
2022/12/18 02:34:56;;;;;;;16.63;7.30;;;27.50;87.80;;;;;;5069371;28;20024;-54
2022/12/18 02:37:27;;;;;;;13.77;7.32;;;27.50;87.60;;;;;;5087642;28;20036;-56
2022/12/18 02:39:57;;;;;;;11.98;6.75;;;27.50;87.50;;;;;;5087268;28;20162;-57
2022/12/18 02:42:24;;;;;;;14.75;7.47;;;27.50;87.10;;;;;;5087072;28;20031;-56
2022/12/18 02:44:52;;;;;;;13.60;7.38;;;27.50;87.10;;;;;;5087168;28;20032;-57
2022/12/18 02:47:25;;;;;;;13.50;7.07;;;27.50;86.80;;;;;;5086900;28;20056;-53
2022/12/18 02:50:27;;;;;;;12.55;6.63;;;27.50;86.50;;;;;;5089679;28;20249;-53
2022/12/18 02:53:06;;;;;;;15.70;7.43;;;27.50;86.50;;;;;;5107881;28;20028;-54
2022/12/18 02:55:47;;;;;;;10.73;6.65;;;27.50;86.30;;;;;;5107554;28;20012;-52
2022/12/18 02:58:41;;;;;;;12.63;6.55;;;27.50;86.10;;;;;;5107354;28;20043;-56
2022/12/18 03:01:15;;;;;;;12.52;6.28;;;27.40;85.80;;;;;;5107598;28;20343;-54
2022/12/18 03:03:49;;;;;;;8.20;6.40;;;27.50;86.20;;;;;;5107682;28;20040;-54
2022/12/18 03:06:41;;;;;;;10.13;6.47;;;27.40;85.20;;;;;;5107268;28;20254;-54
2022/12/18 03:09:14;;;;;;;11.80;7.05;;;27.40;85.00;;;;;;5107061;28;20032;-54
2022/12/18 03:14:34;;;;;;;11.65;6.63;;;27.40;84.80;;;;;;5106767;28;20039;-56
2022/12/18 03:17:07;;;;;;;13.60;6.15;;;27.40;84.50;;;;;;5106850;28;20058;-60
2022/12/18 03:19:35;;;;;;;14.05;6.95;;;27.40;84.40;;;;;;5106448;28;20066;-54
2022/12/18 03:22:05;;;;;;;10.68;6.72;;;27.40;84.40;;;;;;5106777;28;20048;-54
2022/12/18 03:24:33;;;;;;;11.23;6.93;;;27.40;84.40;;;;;;5107086;28;20035;-54
2022/12/18 03:27:03;;;;;;;12.10;7.43;;;27.30;84.40;;;;;;5106723;28;20024;-55
2022/12/18 03:29:46;;;;;;;13.82;9.70;;;27.30;84.30;;;;;;5106926;28;20028;-56
2022/12/18 03:32:31;;;;;;;31.65;12.52;;;27.30;84.40;;;;;;5106779;28;20288;-55
2022/12/18 03:35:02;;;;;;;20.00;11.88;;;27.30;84.30;;;;;;5106850;28;20031;-53
2022/12/18 03:37:29;;;;;;;20.65;10.95;;;27.30;84.40;;;;;;5106645;28;20032;-54
2022/12/18 03:39:55;;;;;;;13.32;9.82;;;27.30;84.20;;;;;;5106659;28;20028;-54
2022/12/18 03:42:34;;;;;;;12.35;8.38;;;27.30;84.10;;;;;;5106386;28;20019;-55
2022/12/18 03:45:16;;;;;;;13.10;8.07;;;27.30;83.90;;;;;;5106318;28;20024;-56
2022/12/18 03:47:59;;;;;;;13.35;7.35;;;27.30;83.70;;;;;;5106156;28;20107;-54
2022/12/18 03:50:43;;;;;;;11.95;6.97;;;27.30;83.40;;;;;;5106090;28;20065;-57
2022/12/18 03:53:29;;;;;;;10.85;6.75;;;27.30;83.20;;;;;;5106920;28;20235;-56
2022/12/18 03:55:57;;;;;;;18.90;7.30;;;27.30;82.90;;;;;;5106459;28;20059;-57
2022/12/18 03:58:27;;;;;;;9.27;6.13;;;27.30;82.80;;;;;;5106843;28;20028;-57
2022/12/18 04:00:57;;;;;;;9.25;6.65;;;27.30;82.50;;;;;;5106260;28;20077;-55
2022/12/18 04:03:25;;;;;;;12.18;6.22;;;27.30;82.50;;;;;;5106426;28;20093;-56
2022/12/18 04:05:54;;;;;;;10.95;6.30;;;27.30;82.30;;;;;;5105944;28;20024;-56
2022/12/18 04:08:22;;;;;;;12.93;6.47;;;27.30;82.20;;;;;;5106474;28;20095;-55
2022/12/18 04:10:48;;;;;;;12.25;6.60;;;27.30;82.20;;;;;;5105791;28;20035;-56
2022/12/18 04:13:29;;;;;;;12.57;6.32;;;27.20;82.10;;;;;;5106752;28;20032;-59
2022/12/18 04:15:55;;;;;;;12.45;6.15;;;27.20;82.10;;;;;;5106510;28;20012;-57
2022/12/18 04:18:22;;;;;;;10.77;6.13;;;27.20;82.20;;;;;;5106043;28;20040;-57
2022/12/18 04:20:48;;;;;;;9.77;5.65;;;27.20;82.20;;;;;;5105620;28;20216;-56
2022/12/18 04:23:15;;;;;;;11.32;6.15;;;27.20;82.20;;;;;;5106286;28;20256;-56
2022/12/18 04:25:41;;;;;;;11.23;6.30;;;27.20;82.10;;;;;;5105579;28;20059;-55
2022/12/18 04:28:08;;;;;;;10.93;5.50;;;27.10;82.00;;;;;;5105886;28;20092;-54
2022/12/18 04:30:34;;;;;;;10.43;5.63;;;27.10;82.00;;;;;;5105761;28;20418;-55
2022/12/18 04:33:01;;;;;;;11.27;5.72;;;27.10;81.90;;;;;;5105201;28;20079;-56
2022/12/18 04:35:28;;;;;;;8.50;5.35;;;27.10;81.80;;;;;;5105951;28;20020;-57
2022/12/18 04:37:54;;;;;;;13.63;5.57;;;27.10;81.80;;;;;;5105642;28;20224;-56
2022/12/18 04:40:22;;;;;;;8.43;4.90;;;27.10;81.80;;;;;;5105566;28;20040;-57
2022/12/18 04:42:48;;;;;;;9.02;4.95;;;27.00;81.50;;;;;;5105639;28;20027;-56
2022/12/18 04:45:15;;;;;;;9.77;5.20;;;27.00;81.40;;;;;;5104993;28;20027;-56
2022/12/18 04:47:42;;;;;;;8.43;4.88;;;27.00;81.40;;;;;;5105352;28;20039;-57
2022/12/18 04:50:08;;;;;;;10.13;5.22;;;27.00;81.40;;;;;;5105149;28;20047;-56
2022/12/18 04:52:36;;;;;;;8.93;4.70;;;27.00;81.30;;;;;;5105460;28;20031;-57
2022/12/18 04:55:03;;;;;;;10.48;4.72;;;27.00;81.30;;;;;;5105449;28;20250;-60
2022/12/18 04:57:29;;;;;;;11.30;4.80;;;27.00;81.20;;;;;;5105440;28;20032;-57
2022/12/18 04:59:56;;;;;;;8.48;4.68;;;27.00;81.20;;;;;;5104910;28;20038;-56
2022/12/18 05:02:22;;;;;;;10.63;4.80;;;26.90;81.20;;;;;;5104999;28;20043;-57
2022/12/18 05:04:50;;;;;;;9.13;4.30;;;26.90;81.10;;;;;;5104921;28;20066;-56
2022/12/18 05:07:17;;;;;;;7.97;4.38;;;26.90;81.10;;;;;;5104809;28;20279;-55
2022/12/18 05:09:43;;;;;;;8.18;3.85;;;26.90;81.20;;;;;;5104948;28;20020;-60
2022/12/18 05:12:10;;;;;;;9.15;4.53;;;26.90;81.10;;;;;;5104763;28;20070;-60
2022/12/18 05:14:36;;;;;;;7.47;4.45;;;26.90;81.20;;;;;;5086535;28;20024;-60
2022/12/18 05:17:03;;;;;;;9.50;4.82;;;26.90;81.30;;;;;;5104470;28;20024;-61
2022/12/18 05:19:30;;;;;;;10.02;4.70;;;26.90;81.20;;;;;;5104516;28;20027;-55
2022/12/18 05:21:57;;;;;;;8.52;4.63;;;26.90;81.30;;;;;;5104280;28;20020;-55
2022/12/18 05:24:23;;;;;;;8.80;4.45;;;26.90;81.30;;;;;;5104478;28;20028;-59
2022/12/18 05:26:50;;;;;;;9.32;4.43;;;26.90;81.20;;;;;;5104397;28;20063;-55
2022/12/18 05:29:17;;;;;;;8.20;4.43;;;26.90;81.10;;;;;;5104152;28;20047;-55
2022/12/18 05:31:43;;;;;;;11.13;4.60;;;26.80;81.00;;;;;;5104271;28;20028;-57
2022/12/18 05:34:10;;;;;;;8.85;5.13;;;26.80;81.00;;;;;;5104296;28;20083;-56
2022/12/18 05:36:36;;;;;;;8.52;5.80;;;26.80;81.10;;;;;;5103943;28;20027;-58
2022/12/18 05:39:03;;;;;;;8.93;5.53;;;26.80;81.00;;;;;;5104475;28;20030;-56
2022/12/18 05:41:30;;;;;;;9.68;5.32;;;26.80;80.90;;;;;;5104133;28;20035;-55
2022/12/18 05:43:56;;;;;;;10.80;4.82;;;26.80;80.80;;;;;;5104271;28;20111;-55
2022/12/18 05:46:24;;;;;;;8.55;4.65;;;26.70;80.70;;;;;;5104094;28;20032;-56
2022/12/18 05:48:50;;;;;;;10.40;5.38;;;26.70;80.60;;;;;;5103889;28;20383;-57
2022/12/18 05:51:20;;;;;;;9.52;5.15;;;26.70;80.50;;;;;;5103933;28;20027;-56
2022/12/18 05:53:48;;;;;;;9.88;5.80;;;26.70;80.40;;;;;;5104541;28;20038;-55
2022/12/18 05:56:17;;;;;;;11.38;6.40;;;26.70;80.20;;;;;;5104165;28;20024;-56
2022/12/18 05:58:44;;;;;;;10.32;5.70;;;26.70;80.10;;;;;;5104164;28;20024;-55
2022/12/18 06:01:20;;;;;;;9.02;4.72;;;26.70;79.70;;;;;;5104150;28;20032;-54
2022/12/18 06:03:46;;;;;;;8.82;4.28;;;26.60;79.30;;;;;;5104907;28;20081;-55
2022/12/18 06:06:14;;;;;;;8.98;4.10;;;26.60;79.10;;;;;;5104810;28;20091;-56
2022/12/18 06:08:41;;;;;;;8.75;4.28;;;26.60;78.80;;;;;;5104876;28;20031;-55
2022/12/18 06:11:07;;;;;;;8.98;4.15;;;26.60;79.20;;;;;;5104493;28;20016;-55
2022/12/18 06:13:34;;;;;;;6.90;4.22;;;26.60;78.70;;;;;;5104864;28;20031;-55
2022/12/18 06:16:04;;;;;;;6.50;4.20;;;26.60;78.60;;;;;;5104502;28;20024;-55
2022/12/18 06:18:30;;;;;;;7.10;4.05;;;26.60;78.60;;;;;;5104977;28;20032;-55
2022/12/18 06:20:58;;;;;;;8.23;4.80;;;26.60;78.60;;;;;;5104446;28;20308;-54
2022/12/18 06:23:25;;;;;;;10.57;4.32;;;26.50;78.40;;;;;;5104404;28;20028;-55
2022/12/18 06:25:52;;;;;;;7.32;4.00;;;26.60;78.50;;;;;;5104112;28;20032;-56
2022/12/18 06:28:18;;;;;;;9.63;3.80;;;26.60;78.50;;;;;;5104393;28;20032;-55
2022/12/18 06:30:46;;;;;;;7.20;3.83;;;26.60;78.60;;;;;;5104495;28;20057;-55
2022/12/18 06:33:14;;;;;;;8.65;4.40;;;26.50;78.60;;;;;;5104680;28;20020;-56
2022/12/18 06:35:41;;;;;;;6.95;3.90;;;26.50;78.60;;;;;;5104160;28;20181;-55
2022/12/18 06:38:07;;;;;;;7.13;3.80;;;26.50;78.70;;;;;;5104259;28;20089;-57
2022/12/18 06:40:34;;;;;;;9.80;4.10;;;26.60;78.70;;;;;;5103899;28;20027;-55
2022/12/18 06:43:01;;;;;;;7.45;3.53;;;26.50;78.60;;;;;;5104553;28;20032;-56
2022/12/18 06:45:28;;;;;;;8.52;3.67;;;26.50;79.00;;;;;;5103962;28;20023;-54
2022/12/18 06:47:54;;;;;;;8.18;3.65;;;26.60;78.30;;;;;;5103867;28;20402;-55
2022/12/18 06:50:21;;;;;;;7.47;3.80;;;26.50;78.10;;;;;;5103925;28;20026;-55
2022/12/18 06:52:47;;;;;;;8.38;3.65;;;26.50;78.00;;;;;;5104605;28;20024;-55
2022/12/18 06:55:14;;;;;;;6.38;3.80;;;26.50;77.70;;;;;;5105390;28;20246;-55
2022/12/18 06:57:40;;;;;;;6.88;3.58;;;26.50;77.60;;;;;;5107926;28;20024;-55
2022/12/18 07:00:08;;;;;;;7.43;3.47;;;26.50;77.30;;;;;;5107990;28;20031;-54
2022/12/18 07:02:35;;;;;;;6.32;2.95;;;26.50;77.30;;;;;;5108210;28;20044;-54
2022/12/18 07:05:02;;;;;;;6.18;3.40;;;26.50;77.20;;;;;;5107469;28;20024;-55
2022/12/18 07:07:28;;;;;;;4.82;3.03;;;26.50;77.20;;;;;;5108039;28;20186;-55
2022/12/18 07:09:55;;;;;;;4.65;3.13;;;26.40;77.10;;;;;;5107792;28;20057;-56
2022/12/18 07:12:21;;;;;;;6.28;3.50;;;26.40;76.90;;;;;;5107733;28;20087;-53
2022/12/18 07:14:48;;;;;;;6.13;3.30;;;26.40;76.80;;;;;;5107862;28;20032;-54
2022/12/18 07:17:15;;;;;;;7.25;3.40;;;26.40;76.90;;;;;;5107911;28;20016;-54
2022/12/18 07:19:41;;;;;;;9.57;3.58;;;26.40;76.90;;;;;;5107668;28;20024;-52
2022/12/18 07:22:08;;;;;;;6.15;3.30;;;26.40;76.80;;;;;;5107836;28;20032;-56
2022/12/18 07:24:34;;;;;;;5.82;3.50;;;26.40;76.80;;;;;;5107076;28;20028;-55
2022/12/18 07:27:01;;;;;;;8.18;3.40;;;26.40;76.70;;;;;;5107354;28;20051;-55
2022/12/18 07:29:28;;;;;;;6.93;3.13;;;26.40;76.80;;;;;;5107245;28;20023;-55
2022/12/18 07:31:54;;;;;;;6.07;3.20;;;26.40;76.80;;;;;;5107374;28;20032;-57
2022/12/18 07:34:21;;;;;;;7.10;3.10;;;26.40;76.70;;;;;;5107211;28;20283;-55
2022/12/18 07:36:48;;;;;;;7.45;3.40;;;26.40;76.60;;;;;;5107316;28;20091;-55
2022/12/18 07:39:14;;;;;;;6.78;3.20;;;26.30;76.30;;;;;;5107420;28;20059;-54
2022/12/18 07:42:30;;;;;;;6.38;3.55;;;26.30;76.20;;;;;;5107199;28;20027;-56
2022/12/18 07:44:30;;;;;;;5.80;3.20;;;26.30;76.20;;;;;;5107020;28;20312;-55
2022/12/18 07:46:57;;;;;;;5.50;3.13;;;26.30;76.10;;;;;;5106657;28;20032;-57
2022/12/18 07:49:23;;;;;;;5.38;2.90;;;26.30;76.20;;;;;;5106943;28;20038;-56
2022/12/18 07:51:50;;;;;;;7.40;3.35;;;26.30;76.30;;;;;;5107158;28;20012;-54
2022/12/18 07:54:16;;;;;;;7.55;3.30;;;26.30;76.20;;;;;;5107041;28;20042;-55
2022/12/18 07:56:43;;;;;;;7.13;3.40;;;26.20;76.20;;;;;;5106905;28;20044;-55
2022/12/18 07:59:10;;;;;;;5.68;2.95;;;26.30;76.30;;;;;;5106668;28;20091;-55
2022/12/18 08:01:36;;;;;;;7.80;3.25;;;26.20;76.40;;;;;;5106161;28;20043;-54
2022/12/18 08:04:03;;;;;;;6.85;2.80;;;26.20;76.50;;;;;;5106759;28;20157;-55
2022/12/18 08:06:30;;;;;;;7.97;3.13;;;26.20;76.60;;;;;;5106788;28;20065;-56
2022/12/18 08:08:57;;;;;;;7.00;3.42;;;26.20;76.60;;;;;;5106596;28;20047;-56
2022/12/18 08:11:26;;;;;;;6.30;3.65;;;26.20;76.80;;;;;;5106710;28;20016;-56
2022/12/18 08:13:53;;;;;;;5.90;2.80;;;26.20;76.60;;;;;;5107094;28;20031;-53
2022/12/18 08:16:21;;;;;;;7.22;3.13;;;26.10;76.70;;;;;;5106573;28;20023;-55
2022/12/18 08:18:48;;;;;;;7.25;3.42;;;26.10;76.80;;;;;;5106634;28;20055;-55
2022/12/18 08:21:26;;;;;;;5.85;3.17;;;26.10;76.80;;;;;;5106557;28;20028;-55
2022/12/18 08:23:55;;;;;;;7.43;3.88;;;26.10;76.90;;;;;;5106885;28;20020;-57
2022/12/18 08:26:22;;;;;;;6.45;3.42;;;26.10;77.00;;;;;;5106320;28;20024;-55
2022/12/18 08:28:50;;;;;;;6.97;3.50;;;26.10;76.90;;;;;;5106311;28;20087;-55
2022/12/18 08:31:17;;;;;;;8.93;3.30;;;26.20;77.00;;;;;;5106225;28;20016;-54
2022/12/18 08:33:43;;;;;;;5.45;3.55;;;26.20;76.90;;;;;;5106622;28;20373;-54
2022/12/18 08:36:10;;;;;;;11.68;3.72;;;26.20;76.90;;;;;;5106191;28;20162;-55
2022/12/18 08:38:37;;;;;;;8.80;3.10;;;26.10;76.80;;;;;;5106617;28;20081;-55
2022/12/18 08:41:06;;;;;;;5.70;3.05;;;26.10;76.70;;;;;;5105974;28;20023;-55
2022/12/18 08:46:22;;;;;;;6.65;3.20;;;26.10;76.80;;;;;;5105995;28;20031;-57
2022/12/18 08:48:50;;;;;;;5.85;3.30;;;26.10;76.50;;;;;;5105740;28;20039;-55
2022/12/18 08:51:17;;;;;;;6.95;3.30;;;26.10;76.40;;;;;;5105851;28;20028;-53
2022/12/18 08:53:44;;;;;;;6.53;3.40;;;26.10;76.30;;;;;;5106196;28;20088;-55
2022/12/18 08:56:12;;;;;;;9.20;3.28;;;26.10;76.20;;;;;;5121529;27;20038;-55
2022/12/18 08:58:38;;;;;;;6.35;3.10;;;26.10;75.80;;;;;;5134829;27;20241;-54
2022/12/18 09:01:10;;;;;;;6.68;3.30;;;26.10;76.40;;;;;;5133819;27;20375;-51
2022/12/18 09:03:37;;;;;;;5.88;2.97;;;26.10;76.40;;;;;;5127510;27;20035;-53
2022/12/18 09:06:05;;;;;;;5.63;3.20;;;26.10;76.30;;;;;;5118157;28;20016;-54
2022/12/18 09:08:31;;;;;;;5.93;3.08;;;26.10;76.30;;;;;;5119300;27;20095;-52
2022/12/18 09:10:58;;;;;;;7.43;3.35;;;26.10;76.30;;;;;;5127113;27;20027;-53
2022/12/18 09:13:24;;;;;;;11.60;3.88;;;26.10;75.90;;;;;;5123174;27;20059;-52
2022/12/18 09:15:53;;;;;;;9.93;3.70;;;26.10;75.50;;;;;;5143774;27;20035;-54
2022/12/18 09:18:21;;;;;;;5.97;3.55;;;26.10;75.40;;;;;;5143766;27;20048;-51
2022/12/18 09:20:50;;;;;;;6.88;3.05;;;26.10;75.30;;;;;;5143735;27;20239;-54
2022/12/18 09:23:16;;;;;;;6.50;3.22;;;26.20;75.50;;;;;;5144075;27;20079;-52
2022/12/18 09:25:43;;;;;;;6.18;3.45;;;26.20;75.50;;;;;;5143576;27;20031;-52
2022/12/18 09:28:14;;;;;;;7.15;3.40;;;26.10;75.30;;;;;;5143724;27;20090;-49
2022/12/18 09:30:49;;;;;;;6.45;3.20;;;26.10;75.30;;;;;;5143639;27;20019;-50
2022/12/18 09:33:16;;;;;;;11.13;3.58;;;26.10;75.60;;;;;;5137155;27;20326;-52
2022/12/18 09:35:45;;;;;;;6.97;3.28;;;26.10;75.60;;;;;;5124065;27;20093;-53
2022/12/18 09:38:14;;;;;;;7.43;3.70;;;26.10;75.70;;;;;;5123152;28;20055;-52
2022/12/18 09:41:06;;;;;;;4.30;3.30;;;26.10;75.80;;;;;;5124569;28;20023;-55
2022/12/18 09:43:51;;;;;;;5.90;3.50;;;26.20;76.00;;;;;;5077239;28;20091;-58
2022/12/18 09:46:36;;;;;;;5.05;2.85;;;26.10;75.90;;;;;;5124602;28;20039;-59
2022/12/18 09:49:11;;;;;;;7.63;3.50;;;26.10;76.00;;;;;;5124246;28;20059;-53
2022/12/18 09:51:43;;;;;;;7.97;3.65;;;26.10;76.00;;;;;;5124414;28;20031;-53
2022/12/18 09:54:24;;;;;;;6.22;3.30;;;26.10;75.90;;;;;;5124444;28;20031;-52
2022/12/18 09:56:51;;;;;;;7.47;3.17;;;26.10;76.00;;;;;;5124766;28;20023;-50
2022/12/18 09:59:36;;;;;;;5.85;3.60;;;26.10;76.00;;;;;;5124443;28;20027;-51
2022/12/18 10:02:18;;;;;;;7.25;3.58;;;26.10;76.20;;;;;;5124270;28;20246;-55
2022/12/18 10:04:53;;;;;;;9.27;3.60;;;26.10;76.20;;;;;;5124343;28;20099;-51
2022/12/18 10:07:30;;;;;;;10.43;3.80;;;26.10;76.20;;;;;;5124267;28;20086;-52
2022/12/18 10:10:03;;;;;;;10.30;4.15;;;26.10;76.80;;;;;;5124284;28;20106;-56
2022/12/18 10:12:36;;;;;;;12.65;4.13;;;26.10;76.30;;;;;;5124136;28;20023;-51
2022/12/18 10:15:14;;;;;;;9.02;3.80;;;26.10;76.40;;;;;;5124297;28;20042;-54
2022/12/18 10:17:45;;;;;;;10.77;4.57;;;26.10;76.30;;;;;;5124415;28;20020;-54
2022/12/18 10:20:21;;;;;;;9.70;4.00;;;26.10;76.10;;;;;;5124325;28;20035;-53
2022/12/18 10:23:30;;;;;;;16.83;4.45;;;26.10;76.30;;;;;;5127324;28;20015;-51
2022/12/18 10:26:04;;;;;;;8.32;4.00;;;26.10;76.30;;;;;;5117099;28;20103;-53
2022/12/18 10:28:32;;;;;;;9.20;4.07;;;26.00;76.40;;;;;;5145051;28;20095;-54
2022/12/18 10:31:00;;;;;;;8.90;3.92;;;26.00;76.30;;;;;;5146931;27;20024;-54
2022/12/18 10:33:31;;;;;;;8.82;3.95;;;26.00;76.20;;;;;;5148937;27;20031;-51
2022/12/18 10:35:58;;;;;;;8.57;4.15;;;26.00;76.30;;;;;;5148801;27;20030;-50
2022/12/18 10:38:29;;;;;;;18.88;4.60;;;26.00;76.10;;;;;;5148965;27;20039;-51
2022/12/18 10:41:00;;;;;;;14.93;4.28;;;26.00;76.10;;;;;;5148394;27;20026;-52
2022/12/18 10:43:30;;;;;;;11.27;3.78;;;26.00;76.40;;;;;;5148774;27;20049;-52
2022/12/18 10:46:09;;;;;;;14.68;4.43;;;26.00;76.30;;;;;;5142254;27;20015;-52
2022/12/18 10:48:38;;;;;;;12.07;4.20;;;26.00;76.00;;;;;;5146685;27;20054;-55
2022/12/18 10:51:07;;;;;;;11.00;4.20;;;26.00;76.10;;;;;;5107384;28;20055;-54
2022/12/18 10:53:36;;;;;;;10.32;4.00;;;26.00;75.80;;;;;;5134710;27;20316;-53
2022/12/18 10:56:06;;;;;;;8.63;3.80;;;25.90;75.50;;;;;;5148467;27;20046;-50
2022/12/18 10:58:35;;;;;;;7.22;3.90;;;25.90;75.50;;;;;;5148402;27;20053;-51
2022/12/18 11:01:02;;;;;;;11.40;3.85;;;25.90;75.50;;;;;;5147474;27;20036;-52
2022/12/18 11:03:39;;;;;;;6.30;4.00;;;25.90;75.40;;;;;;5148308;27;20030;-52
2022/12/18 11:06:11;;;;;;;7.72;3.35;;;25.90;75.40;;;;;;5147833;27;20058;-54
2022/12/18 11:08:38;;;;;;;;;;;25.90;75.30;;;;;;5148773;27;20315;-53
2022/12/18 11:11:27;;;;;;;11.70;4.05;;;25.90;75.10;;;;;;5147859;27;19959;-52
2022/12/18 11:14:18;;;;;;;7.38;3.83;;;25.90;75.10;;;;;;5147388;27;20102;-54
2022/12/18 11:16:47;;;;;;;8.68;3.95;;;25.90;75.00;;;;;;5147680;27;20090;-56
2022/12/18 11:19:32;;;;;;;10.45;3.83;;;25.90;75.00;;;;;;5147691;27;20023;-52
2022/12/18 11:21:59;;;;;;;6.95;3.50;;;25.90;74.60;;;;;;5147545;27;20039;-53
2022/12/18 11:24:35;;;;;;;7.50;3.50;;;25.90;74.50;;;;;;5147695;27;20042;-52
2022/12/18 11:27:15;;;;;;;13.35;4.10;;;25.90;74.40;;;;;;5147641;27;20207;-52
2022/12/18 11:29:42;;;;;;;9.20;3.40;;;25.90;74.50;;;;;;5147720;27;20051;-53
2022/12/18 11:32:50;;;;;;;7.80;3.80;;;25.90;74.20;;;;;;5147521;27;20069;-53
2022/12/18 11:35:28;;;;;;;5.68;3.67;;;25.90;74.30;;;;;;5134220;27;20026;-54
2022/12/18 11:37:59;;;;;;;4.20;3.20;;;25.90;74.20;;;;;;5147936;27;20042;-57
2022/12/18 11:40:35;;;;;;;7.55;3.75;;;25.90;74.20;;;;;;5147252;27;20034;-54
2022/12/18 11:43:28;;;;;;;7.78;3.33;;;25.90;74.20;;;;;;5145047;27;20214;-53
2022/12/18 11:46:17;;;;;;;6.07;3.10;;;25.90;74.00;;;;;;5133879;27;20031;-53
2022/12/18 11:49:07;;;;;;;9.15;3.53;;;25.90;73.90;;;;;;5130864;27;20038;-52
2022/12/18 11:52:04;;;;;;;7.28;3.42;;;25.90;74.10;;;;;;5133763;27;20292;-53
2022/12/18 11:54:31;;;;;;;10.07;3.65;;;25.90;74.10;;;;;;5147043;27;20046;-53
2022/12/18 11:57:16;;;;;;;10.65;3.60;;;25.90;74.10;;;;;;5147368;27;20111;-53
2022/12/18 12:00:06;;;;;;;9.75;3.25;;;26.00;74.20;;;;;;5146940;27;20188;-54
2022/12/18 12:02:45;;;;;;;14.00;3.63;;;26.00;74.30;;;;;;5130249;27;20327;-53
2022/12/18 12:05:47;;;;;;;8.70;3.35;;;26.10;74.50;;;;;;5146921;27;20019;-52
2022/12/18 12:08:29;;;;;;;7.68;3.45;;;26.10;74.40;;;;;;5146686;27;20109;-54
2022/12/18 12:11:02;;;;;;;11.38;3.42;;;26.10;74.50;;;;;;5147192;27;20019;-53
2022/12/18 12:13:52;;;;;;;10.18;3.90;;;26.10;74.70;;;;;;5147363;27;20038;-53
2022/12/18 12:16:58;;;;;;;6.57;3.45;;;26.10;74.70;;;;;;5146771;27;20056;-54
2022/12/18 12:19:31;;;;;;;8.88;3.47;;;26.10;74.70;;;;;;5043810;28;20043;-49
2022/12/18 12:22:10;;;;;;;11.35;3.42;;;26.20;75.20;;;;;;5125904;28;20027;-53
2022/12/18 12:24:39;;;;;;;8.55;3.90;;;26.20;75.10;;;;;;5125946;28;20038;-51
2022/12/18 12:27:30;;;;;;;11.20;4.20;;;26.30;75.00;;;;;;5125232;28;20020;-53
2022/12/18 12:30:08;;;;;;;11.50;4.10;;;26.30;75.10;;;;;;5118824;28;20044;-54
2022/12/18 12:32:52;;;;;;;10.70;3.90;;;26.30;75.30;;;;;;5125965;28;20027;-54
2022/12/18 12:35:28;;;;;;;9.93;4.32;;;26.30;75.70;;;;;;5127416;27;20043;-53
2022/12/18 12:38:01;;;;;;;8.75;4.10;;;26.40;76.20;;;;;;5125999;27;20116;-52
2022/12/18 12:40:30;;;;;;;13.38;3.90;;;26.40;76.50;;;;;;5125587;28;20031;-54
2022/12/18 12:43:12;;;;;;;7.45;3.75;;;26.40;76.80;;;;;;5125340;28;20033;-56
2022/12/18 12:46:05;;;;;;;6.50;3.90;;;26.40;76.60;;;;;;5125462;28;20032;-54
2022/12/18 12:48:34;;;;;;;;;;;26.50;77.20;;;;;;5114903;28;20039;-52
2022/12/18 12:51:23;;;;;;;10.68;3.80;;;26.50;76.90;;;;;;5124360;28;19903;-55
2022/12/18 12:53:51;;;;;;;8.57;4.45;;;26.50;77.30;;;;;;5125283;28;20083;-54
2022/12/18 12:56:21;;;;;;;9.32;3.92;;;26.50;77.30;;;;;;5125386;28;20090;-55
2022/12/18 12:58:47;;;;;;;6.85;3.70;;;26.60;77.60;;;;;;5125580;28;20034;-56
2022/12/18 13:01:23;;;;;;;9.52;3.90;;;26.60;77.70;;;;;;5125118;28;20086;-52
2022/12/18 13:03:59;;;;;;;10.10;4.10;;;26.60;77.80;;;;;;5125514;28;20039;-55
2022/12/18 13:06:38;;;;;;;8.57;4.10;;;26.60;77.80;;;;;;5124549;28;20016;-60
2022/12/18 13:09:05;;;;;;;9.95;4.50;;;26.70;78.10;;;;;;5123736;28;20036;-52